EGLC/LCY METAR and TAF weather

Enter ICAO airport designator
Station Type Date Time Source
EGLC METAR 2024/04/15 09:20 UTC NOAA

EGLC 150920Z AUTO 29021G32KT 9999 -RA FEW019/// SCT024/// BKN030/// //////CB 08/04 Q1005 RERA


Station Type Date Time Source
EGLC Decoded METAR 2024/04/15 09:20 UTC NOAA

London City Airport, United Kingdom (EGLC) 51-30N 000-30W
Apr 15, 2024 - 05:20 AM EDT / 2024.04.15 0920 UTC
Wind: from the WNW (290 degrees) at 24 MPH (21 KT) gusting to 37 MPH (32 KT):0
Visibility: greater than 7 mile(s):0
Sky conditions: mostly cloudy
Weather: light rain; Cumulonimbus clouds observed
Temperature: 46 F (8 C)
Dew Point: 39 F (4 C)
Relative Humidity: 75%
Pressure (altimeter): 29.68 in. Hg (1005 hPa)
ob: EGLC 150920Z AUTO 29021G32KT 9999 -RA FEW019/// SCT024/// BKN030/// //////CB 08/04 Q1005 RERA
cycle: 9

Station Type Date Time Source
EGLC TAF 2022/08/24 18:09 UTC NOAA